createdAt,value
2023-02-11T00:01:14.120Z,55.33
2023-02-11T00:03:41.983Z,46.95
2023-02-11T00:06:11.195Z,49.33
2023-02-11T00:08:39.392Z,42.42
2023-02-11T00:11:07.875Z,49.50
2023-02-11T00:13:35.420Z,43.47
2023-02-11T00:16:13.711Z,50.95
2023-02-11T00:18:41.599Z,50.42
2023-02-11T00:21:11.944Z,50.85
2023-02-11T00:23:39.523Z,47.17
2023-02-11T00:26:15.879Z,45.33
2023-02-11T00:28:44.077Z,53.58
2023-02-11T00:31:13.226Z,50.05
2023-02-11T00:33:41.070Z,49.30
2023-02-11T00:36:14.345Z,44.72
2023-02-11T00:38:46.544Z,48.77
2023-02-11T00:41:15.070Z,47.25
2023-02-11T00:43:43.064Z,39.78
2023-02-11T00:46:10.853Z,38.30
2023-02-11T00:48:38.601Z,41.70
2023-02-11T00:51:06.879Z,42.30
2023-02-11T00:53:34.794Z,37.97
2023-02-11T00:56:02.449Z,43.03
2023-02-11T00:58:30.378Z,40.60
2023-02-11T01:00:58.341Z,45.47
2023-02-11T01:03:26.056Z,48.03
2023-02-11T01:05:54.237Z,42.97
2023-02-11T01:08:21.778Z,45.55
2023-02-11T01:11:03.296Z,48.60
2023-02-11T01:13:32.263Z,39.65
2023-02-11T01:16:00.213Z,45.90
2023-02-11T01:18:27.807Z,52.08
2023-02-11T01:20:55.585Z,43.72
2023-02-11T01:23:24.036Z,50.20
2023-02-11T01:25:52.652Z,41.53
2023-02-11T01:28:26.352Z,40.67
2023-02-11T01:30:54.608Z,36.28
2023-02-11T01:33:23.040Z,37.67
2023-02-11T01:35:50.876Z,36.60
2023-02-11T01:38:26.202Z,38.38
2023-02-11T01:40:57.228Z,40.93
2023-02-11T01:43:26.170Z,34.97
2023-02-11T01:46:12.455Z,36.78
2023-02-11T01:48:42.940Z,34.17
2023-02-11T01:51:17.454Z,30.92
2023-02-11T01:54:05.157Z,36.13
2023-02-11T01:56:53.113Z,33.45
2023-02-11T01:59:25.960Z,32.97
2023-02-11T02:01:57.789Z,32.45
2023-02-11T02:04:31.541Z,41.28
2023-02-11T02:07:10.025Z,45.03
2023-02-11T02:09:46.634Z,47.75
2023-02-11T02:12:14.237Z,44.20
2023-02-11T02:14:43.204Z,37.40
2023-02-11T02:17:22.235Z,40.67
2023-02-11T02:20:04.302Z,36.17
2023-02-11T02:22:53.674Z,34.78
2023-02-11T02:25:27.267Z,43.47
2023-02-11T02:28:07.362Z,33.65
2023-02-11T02:30:53.422Z,37.00
2023-02-11T02:33:58.942Z,38.57
2023-02-11T02:36:38.336Z,41.63
2023-02-11T02:39:18.551Z,41.08
2023-02-11T02:41:46.448Z,41.05
2023-02-11T02:44:14.255Z,37.95
2023-02-11T02:46:41.891Z,38.57
2023-02-11T02:49:14.266Z,34.20
2023-02-11T02:51:54.291Z,35.25
2023-02-11T02:54:43.810Z,43.58
2023-02-11T02:57:30.528Z,37.00
2023-02-11T02:59:58.100Z,36.83
2023-02-11T03:02:36.229Z,37.08
2023-02-11T03:05:28.566Z,42.25
2023-02-11T03:08:10.206Z,43.28
2023-02-11T03:10:42.014Z,36.45
2023-02-11T03:13:10.213Z,38.33
2023-02-11T03:15:46.239Z,43.75
2023-02-11T03:18:16.401Z,34.38
2023-02-11T03:20:45.944Z,34.53
2023-02-11T03:23:30.119Z,36.70
2023-02-11T03:26:09.328Z,37.47
2023-02-11T03:29:09.247Z,40.40
2023-02-11T03:31:49.193Z,41.30
2023-02-11T03:34:27.418Z,44.20
2023-02-11T03:36:58.421Z,43.97
2023-02-11T03:39:31.731Z,48.30
2023-02-11T03:41:59.922Z,44.25
2023-02-11T03:44:33.148Z,47.80
2023-02-11T03:47:01.292Z,44.78
2023-02-11T03:49:30.152Z,42.40
2023-02-11T03:51:58.238Z,39.63
2023-02-11T03:54:29.768Z,37.45
2023-02-11T03:56:59.748Z,37.03
2023-02-11T03:59:27.394Z,37.03
2023-02-11T04:01:55.070Z,37.50
2023-02-11T04:04:22.921Z,35.50
2023-02-11T04:06:50.419Z,38.72
2023-02-11T04:09:18.019Z,33.67
2023-02-11T04:11:46.088Z,40.30
2023-02-11T04:14:13.576Z,37.20
2023-02-11T04:16:41.111Z,36.30
2023-02-11T04:19:09.009Z,38.33
2023-02-11T04:21:36.504Z,42.17
2023-02-11T04:24:04.196Z,36.63
2023-02-11T04:26:32.048Z,46.20
2023-02-11T04:28:59.777Z,37.77
2023-02-11T04:31:28.476Z,39.28
2023-02-11T04:33:57.031Z,42.85
2023-02-11T04:36:24.516Z,38.72
2023-02-11T04:38:51.993Z,42.38
2023-02-11T04:41:19.830Z,41.57
2023-02-11T04:43:47.440Z,36.83
2023-02-11T04:46:15.136Z,42.33
2023-02-11T04:48:43.054Z,43.45
2023-02-11T04:51:10.471Z,45.12
2023-02-11T04:53:38.050Z,39.87
2023-02-11T04:56:05.966Z,49.55
2023-02-11T04:58:33.555Z,44.88
2023-02-11T05:01:11.298Z,39.42
2023-02-11T05:03:39.241Z,49.20
2023-02-11T05:06:07.265Z,55.63
2023-02-11T05:08:34.826Z,71.37
2023-02-11T05:11:02.700Z,77.72
2023-02-11T05:13:30.473Z,79.15
2023-02-11T05:15:58.037Z,84.10
2023-02-11T05:18:26.132Z,85.43
2023-02-11T05:20:54.575Z,86.95
2023-02-11T05:23:22.060Z,61.63
2023-02-11T05:25:50.210Z,69.82
2023-02-11T05:28:18.368Z,49.08
2023-02-11T05:30:45.907Z,54.60
2023-02-11T05:33:14.144Z,39.97
2023-02-11T05:35:41.666Z,43.47
2023-02-11T05:38:09.239Z,34.15
2023-02-11T05:40:37.149Z,40.70
2023-02-11T05:43:04.595Z,41.23
2023-02-11T05:45:32.375Z,40.47
2023-02-11T05:48:00.582Z,48.33
2023-02-11T05:50:28.113Z,58.42
2023-02-11T05:52:55.625Z,52.53
2023-02-11T05:55:23.499Z,57.80
2023-02-11T05:57:51.070Z,49.70
2023-02-11T06:00:19.068Z,55.15
2023-02-11T06:02:46.897Z,55.03
2023-02-11T06:05:14.523Z,53.80
2023-02-11T06:07:42.202Z,54.03
2023-02-11T06:10:11.425Z,52.10
2023-02-11T06:12:39.349Z,47.33
2023-02-11T06:15:07.587Z,51.72
2023-02-11T06:17:36.694Z,59.55
2023-02-11T06:20:06.369Z,48.87
2023-02-11T06:22:35.050Z,50.58
2023-02-11T06:25:03.238Z,54.47
2023-02-11T06:27:30.959Z,53.65
2023-02-11T06:29:58.937Z,51.17
2023-02-11T06:32:45.462Z,52.37
2023-02-11T06:35:14.820Z,57.17
2023-02-11T06:37:42.982Z,54.67
2023-02-11T06:40:11.413Z,45.15
2023-02-11T06:42:39.414Z,53.30
2023-02-11T06:45:13.211Z,55.73
2023-02-11T06:47:41.049Z,51.80
2023-02-11T06:50:11.758Z,58.55
2023-02-11T06:52:39.403Z,50.00
2023-02-11T06:55:07.038Z,55.85
2023-02-11T06:57:35.002Z,54.23
2023-02-11T07:00:02.781Z,59.35
2023-02-11T07:02:31.845Z,62.58
2023-02-11T07:04:59.658Z,63.13
2023-02-11T07:07:27.583Z,68.22
2023-02-11T07:09:55.156Z,64.33
2023-02-11T07:12:23.161Z,60.38
2023-02-11T07:14:50.841Z,57.13
2023-02-11T07:17:18.420Z,52.55
2023-02-11T07:19:46.267Z,76.87
2023-02-11T07:22:14.308Z,60.80
2023-02-11T07:24:41.915Z,53.80
2023-02-11T07:27:09.751Z,55.12
2023-02-11T07:29:37.718Z,53.50
2023-02-11T07:32:06.291Z,65.10
2023-02-11T07:34:34.609Z,57.23
2023-02-11T07:37:02.195Z,51.03
2023-02-11T07:39:29.815Z,50.15
2023-02-11T07:41:58.460Z,50.45
2023-02-11T07:44:26.755Z,65.68
2023-02-11T07:46:54.441Z,51.50
2023-02-11T07:49:22.371Z,48.30
2023-02-11T07:51:51.351Z,53.97
2023-02-11T07:54:19.540Z,48.75
2023-02-11T07:57:19.662Z,52.15
2023-02-11T07:59:47.999Z,48.00
2023-02-11T08:02:15.571Z,54.33
2023-02-11T08:04:46.137Z,44.05
2023-02-11T08:07:19.870Z,48.25
2023-02-11T08:09:50.288Z,49.30
2023-02-11T08:12:17.881Z,45.07
2023-02-11T08:14:45.461Z,44.40
2023-02-11T08:17:13.333Z,47.00
2023-02-11T08:19:41.202Z,41.47
2023-02-11T08:22:08.829Z,43.58
2023-02-11T08:24:36.693Z,41.33
2023-02-11T08:27:04.384Z,45.15
2023-02-11T08:29:31.950Z,54.92
2023-02-11T08:31:59.737Z,42.25
2023-02-11T08:34:27.336Z,72.70
2023-02-11T08:36:54.968Z,146.60
2023-02-11T08:39:23.188Z,117.80
2023-02-11T08:41:53.190Z,103.60
2023-02-11T08:44:21.551Z,96.82
2023-02-11T08:46:50.216Z,57.55
2023-02-11T08:49:17.914Z,44.77
2023-02-11T08:51:46.231Z,50.58
2023-02-11T08:54:15.077Z,47.55
2023-02-11T08:56:42.689Z,44.50
2023-02-11T08:59:14.252Z,42.38
2023-02-11T09:01:42.192Z,44.00
2023-02-11T09:04:10.640Z,39.50
2023-02-11T09:06:38.247Z,42.00
2023-02-11T09:09:06.088Z,45.30
2023-02-11T09:11:35.535Z,40.95
2023-02-11T09:14:04.270Z,38.93
2023-02-11T09:16:35.892Z,36.13
2023-02-11T09:19:05.394Z,37.10
2023-02-11T09:21:33.549Z,39.92
2023-02-11T09:24:01.159Z,35.80
2023-02-11T09:26:31.222Z,36.83
2023-02-11T09:29:00.275Z,38.67
2023-02-11T09:31:29.894Z,35.67
2023-02-11T09:33:59.828Z,31.92
2023-02-11T09:36:30.183Z,33.15
2023-02-11T09:38:59.499Z,43.23
2023-02-11T09:41:39.688Z,31.70
2023-02-11T09:44:09.870Z,36.08
2023-02-11T09:46:42.242Z,33.42
2023-02-11T09:49:19.720Z,31.95
2023-02-11T09:52:08.454Z,31.63
2023-02-11T09:54:54.601Z,32.78
2023-02-11T09:57:28.559Z,28.42
2023-02-11T09:59:57.832Z,32.20
2023-02-11T10:02:38.074Z,33.55
2023-02-11T10:05:25.867Z,32.47
2023-02-11T10:08:16.755Z,31.55
2023-02-11T10:10:52.828Z,29.75
2023-02-11T10:13:54.655Z,25.27
2023-02-11T10:16:32.426Z,33.40
2023-02-11T10:19:14.145Z,34.73
2023-02-11T10:21:54.999Z,29.92
2023-02-11T10:24:22.592Z,29.87
2023-02-11T10:26:52.041Z,29.20
2023-02-11T10:29:39.023Z,32.53
2023-02-11T10:32:15.498Z,33.47
2023-02-11T10:34:43.075Z,32.28
2023-02-11T10:37:13.933Z,27.62
2023-02-11T10:39:41.594Z,35.30
2023-02-11T10:42:11.705Z,29.20
2023-02-11T10:44:58.942Z,28.33
2023-02-11T10:47:32.830Z,29.67
2023-02-11T10:50:03.753Z,30.40
2023-02-11T10:52:31.725Z,31.20
2023-02-11T10:55:00.574Z,33.28
2023-02-11T10:57:39.887Z,30.93
2023-02-11T11:00:36.254Z,29.30
2023-02-11T11:03:07.799Z,33.33
2023-02-11T11:05:47.635Z,30.30
2023-02-11T11:08:15.887Z,29.75
2023-02-11T11:10:47.003Z,30.73
2023-02-11T11:13:24.194Z,34.40
2023-02-11T11:16:08.534Z,26.90
2023-02-11T11:18:36.427Z,30.08
2023-02-11T11:21:14.368Z,30.12
2023-02-11T11:24:06.291Z,30.57
2023-02-11T11:26:45.711Z,29.15
2023-02-11T11:29:23.128Z,33.53
2023-02-11T11:32:18.285Z,30.50
2023-02-11T11:34:52.160Z,36.08
2023-02-11T11:37:29.214Z,33.03
2023-02-11T11:40:00.525Z,31.80
2023-02-11T11:42:31.263Z,37.83
2023-02-11T11:45:05.008Z,33.85
2023-02-11T11:47:45.507Z,35.75
2023-02-11T11:50:28.207Z,30.03
2023-02-11T11:53:07.774Z,32.65
2023-02-11T11:55:42.439Z,31.92
2023-02-11T11:58:18.445Z,29.25
2023-02-11T12:01:04.863Z,28.00
2023-02-11T12:03:32.605Z,33.87
2023-02-11T12:06:09.326Z,29.95
2023-02-11T12:09:01.820Z,32.40
2023-02-11T12:11:39.319Z,33.15
2023-02-11T12:14:44.221Z,31.58
2023-02-11T12:17:11.655Z,33.40
2023-02-11T12:20:05.567Z,31.25
2023-02-11T12:23:02.548Z,29.00
2023-02-11T12:25:39.101Z,46.17
2023-02-11T12:28:15.485Z,32.28
2023-02-11T12:31:07.406Z,30.93
2023-02-11T12:34:12.453Z,35.42
2023-02-11T12:36:45.871Z,29.25
2023-02-11T12:39:45.529Z,37.83
2023-02-11T12:42:51.166Z,78.97
2023-02-11T12:45:43.919Z,30.60
2023-02-11T12:48:37.310Z,36.00
2023-02-11T12:51:39.653Z,39.65
2023-02-11T12:54:10.995Z,34.15
2023-02-11T12:56:59.226Z,36.92
2023-02-11T12:59:33.509Z,33.83
2023-02-11T13:02:04.561Z,42.10
2023-02-11T13:04:39.408Z,34.42
2023-02-11T13:07:14.873Z,43.03
2023-02-11T13:09:46.729Z,34.53
2023-02-11T13:12:33.533Z,32.10
2023-02-11T13:15:07.153Z,31.02
2023-02-11T13:17:47.164Z,36.65
2023-02-11T13:20:20.764Z,34.85
2023-02-11T13:23:14.223Z,31.05
2023-02-11T13:25:53.438Z,35.50
2023-02-11T13:28:50.268Z,34.88
2023-02-11T13:31:20.443Z,37.35
2023-02-11T13:33:49.925Z,31.60
2023-02-11T13:36:23.720Z,39.97
2023-02-11T13:38:57.869Z,37.73
2023-02-11T13:41:30.364Z,34.92
2023-02-11T13:44:25.499Z,36.78
2023-02-11T13:47:02.405Z,35.85
2023-02-11T13:49:32.702Z,39.45
2023-02-11T13:52:02.072Z,34.77
2023-02-11T13:54:38.558Z,48.15
2023-02-11T13:57:23.696Z,36.63
2023-02-11T13:59:54.119Z,39.65
2023-02-11T14:02:40.336Z,36.45
2023-02-11T14:05:27.123Z,31.20
2023-02-11T14:08:28.609Z,35.33
2023-02-11T14:10:59.293Z,35.80
2023-02-11T14:13:34.754Z,40.45
2023-02-11T14:16:05.764Z,33.72
2023-02-11T14:18:49.623Z,35.93
2023-02-11T14:21:29.652Z,37.53
2023-02-11T14:24:04.938Z,32.85
2023-02-11T14:26:52.324Z,36.33
2023-02-11T14:29:41.609Z,34.30
2023-02-11T14:32:21.757Z,33.07
2023-02-11T14:35:08.401Z,32.33
2023-02-11T14:37:36.185Z,33.90
2023-02-11T14:40:11.297Z,32.95
2023-02-11T14:42:39.806Z,36.33
2023-02-11T14:45:14.546Z,35.90
2023-02-11T14:48:08.475Z,31.55
2023-02-11T14:50:50.005Z,31.58
2023-02-11T14:53:28.520Z,29.35
2023-02-11T14:55:56.318Z,35.70
2023-02-11T14:58:26.138Z,32.37
2023-02-11T15:00:57.339Z,33.95
2023-02-11T15:03:35.972Z,33.45
2023-02-11T15:06:19.114Z,34.03
2023-02-11T15:08:58.409Z,33.17
2023-02-11T15:11:27.508Z,31.97
2023-02-11T15:13:56.482Z,34.28
2023-02-11T15:16:26.088Z,49.47
2023-02-11T15:19:02.229Z,45.30
2023-02-11T15:21:32.829Z,52.13
2023-02-11T15:24:18.461Z,57.10
2023-02-11T15:26:56.226Z,43.08
2023-02-11T15:29:28.731Z,44.13
2023-02-11T15:32:22.653Z,38.65
2023-02-11T15:34:52.420Z,38.50
2023-02-11T15:37:22.204Z,42.60
2023-02-11T15:39:50.680Z,42.28
2023-02-11T15:42:40.771Z,45.70
2023-02-11T15:45:28.713Z,42.78
2023-02-11T15:48:00.279Z,40.22
2023-02-11T15:50:30.679Z,40.53
2023-02-11T15:53:01.268Z,38.83
2023-02-11T15:55:29.335Z,39.15
2023-02-11T15:58:00.692Z,42.33
2023-02-11T16:00:36.264Z,51.28
2023-02-11T16:03:04.811Z,49.47
2023-02-11T16:05:37.404Z,58.28
2023-02-11T16:08:21.272Z,99.55
2023-02-11T16:11:03.389Z,72.72
2023-02-11T16:13:33.697Z,51.10
2023-02-11T16:16:04.700Z,46.23
2023-02-11T16:18:39.230Z,53.45
2023-02-11T16:21:18.154Z,51.25
2023-02-11T16:23:51.829Z,49.83
2023-02-11T16:26:39.267Z,48.90
2023-02-11T16:29:13.728Z,51.17
2023-02-11T16:31:43.798Z,48.90
2023-02-11T16:34:17.153Z,48.65
2023-02-11T16:36:46.067Z,48.58
2023-02-11T16:39:14.993Z,49.92
2023-02-11T16:41:43.298Z,44.93
2023-02-11T16:44:11.120Z,48.25
2023-02-11T16:46:39.381Z,46.40
2023-02-11T16:49:11.246Z,55.30
2023-02-11T16:51:40.662Z,56.47
2023-02-11T16:54:18.194Z,54.93
2023-02-11T16:56:46.482Z,48.67
2023-02-11T16:59:14.603Z,52.50
2023-02-11T17:01:43.171Z,58.85
2023-02-11T17:04:17.775Z,48.65
2023-02-11T17:06:45.892Z,48.77
2023-02-11T17:09:20.781Z,55.25
2023-02-11T17:11:49.450Z,47.10
2023-02-11T17:14:18.674Z,47.70
2023-02-11T17:16:47.756Z,50.83
2023-02-11T17:19:19.688Z,50.93
2023-02-11T17:21:50.751Z,49.05
2023-02-11T17:24:20.293Z,49.50
2023-02-11T17:26:48.816Z,51.40
2023-02-11T17:29:19.462Z,54.45
2023-02-11T17:31:47.337Z,50.23
2023-02-11T17:34:16.679Z,52.60
2023-02-11T17:36:44.882Z,49.83
2023-02-11T17:39:12.942Z,50.60
2023-02-11T17:41:41.602Z,47.78
2023-02-11T17:44:12.321Z,46.10
2023-02-11T17:46:40.317Z,53.63
2023-02-11T17:49:08.505Z,47.55
2023-02-11T17:51:38.286Z,46.63
2023-02-11T17:54:14.357Z,45.30
2023-02-11T17:56:42.868Z,49.30
2023-02-11T17:59:12.176Z,46.63
2023-02-11T18:01:41.192Z,47.03
2023-02-11T18:04:13.766Z,47.10
2023-02-11T18:06:42.697Z,42.97
2023-02-11T18:09:11.334Z,40.70
2023-02-11T18:11:40.469Z,44.78
2023-02-11T18:14:09.103Z,46.58
2023-02-11T18:16:39.465Z,48.63
2023-02-11T18:19:08.034Z,43.92
2023-02-11T18:21:36.338Z,43.87
2023-02-11T18:24:07.036Z,43.38
2023-02-11T18:26:35.361Z,42.92
2023-02-11T18:29:03.928Z,44.47
2023-02-11T18:31:32.245Z,46.60
2023-02-11T18:34:00.150Z,45.23
2023-02-11T18:36:27.707Z,37.17
2023-02-11T18:38:58.233Z,42.00
2023-02-11T18:41:25.965Z,37.90
2023-02-11T18:43:54.483Z,43.25
2023-02-11T18:46:22.707Z,43.70
2023-02-11T18:48:55.565Z,46.42
2023-02-11T18:51:24.330Z,51.35
2023-02-11T18:53:52.489Z,50.55
2023-02-11T18:56:22.788Z,47.30
2023-02-11T18:58:51.465Z,50.40
2023-02-11T19:01:24.410Z,42.42
2023-02-11T19:03:54.599Z,42.72
2023-02-11T19:06:25.665Z,41.37
2023-02-11T19:08:59.807Z,45.15
2023-02-11T19:11:47.725Z,42.27
2023-02-11T19:14:20.651Z,40.10
2023-02-11T19:16:50.625Z,43.33
2023-02-11T19:19:19.257Z,38.40
2023-02-11T19:21:47.654Z,43.95
2023-02-11T19:24:18.929Z,36.37
2023-02-11T19:26:48.228Z,38.17
2023-02-11T19:29:17.306Z,36.20
2023-02-11T19:31:45.421Z,40.90
2023-02-11T19:34:15.343Z,38.53
2023-02-11T19:36:43.608Z,41.97
2023-02-11T19:39:13.362Z,40.03
2023-02-11T19:41:41.685Z,39.63
2023-02-11T19:44:09.664Z,37.47
2023-02-11T19:46:40.793Z,42.75
2023-02-11T19:49:10.128Z,39.57
2023-02-11T19:51:39.508Z,36.28
2023-02-11T19:54:07.686Z,30.90
2023-02-11T19:56:35.653Z,39.63
2023-02-11T19:59:03.893Z,38.00
2023-02-11T20:01:32.972Z,37.90
2023-02-11T20:04:01.564Z,40.85
2023-02-11T20:06:31.517Z,44.60
2023-02-11T20:09:01.772Z,38.30
2023-02-11T20:11:31.396Z,38.70
2023-02-11T20:13:59.434Z,38.23
2023-02-11T20:16:46.309Z,41.17
2023-02-11T20:19:18.393Z,36.53
2023-02-11T20:21:48.353Z,32.28
2023-02-11T20:24:17.682Z,35.50
2023-02-11T20:26:48.401Z,38.93
2023-02-11T20:29:18.009Z,38.85
2023-02-11T20:31:46.230Z,36.25
2023-02-11T20:34:14.180Z,37.90
2023-02-11T20:36:42.347Z,37.63
2023-02-11T20:39:11.556Z,36.47
2023-02-11T20:41:40.120Z,39.97
2023-02-11T20:44:09.951Z,37.42
2023-02-11T20:46:40.382Z,35.55
2023-02-11T20:49:12.104Z,34.15
2023-02-11T20:51:40.410Z,39.83
2023-02-11T20:54:13.318Z,36.63
2023-02-11T20:56:41.688Z,36.13
2023-02-11T20:59:10.573Z,30.05
2023-02-11T21:01:42.338Z,34.28
2023-02-11T21:04:13.104Z,34.23
2023-02-11T21:06:47.331Z,36.72
2023-02-11T21:09:17.419Z,33.47
2023-02-11T21:11:45.861Z,31.77
2023-02-11T21:14:13.524Z,31.55
2023-02-11T21:16:42.309Z,31.87
2023-02-11T21:19:09.998Z,33.70
2023-02-11T21:21:38.824Z,35.30
2023-02-11T21:24:07.609Z,33.08
2023-02-11T21:26:35.889Z,28.85
2023-02-11T21:29:18.118Z,32.77
2023-02-11T21:31:57.448Z,34.90
2023-02-11T21:34:24.984Z,29.90
2023-02-11T21:36:53.118Z,32.20
2023-02-11T21:39:21.239Z,27.60
2023-02-11T21:41:49.126Z,27.03
2023-02-11T21:44:17.877Z,30.88
2023-02-11T21:46:45.743Z,30.20
2023-02-11T21:49:13.410Z,27.08
2023-02-11T21:51:42.499Z,26.48
2023-02-11T21:54:10.901Z,26.40
2023-02-11T21:56:38.401Z,29.80
2023-02-11T21:59:06.482Z,23.95
2023-02-11T22:01:35.421Z,27.92
2023-02-11T22:04:03.513Z,26.95
2023-02-11T22:06:33.605Z,26.40
2023-02-11T22:09:06.675Z,24.75
2023-02-11T22:11:34.821Z,26.77
2023-02-11T22:14:02.641Z,25.17
2023-02-11T22:16:30.529Z,27.42
2023-02-11T22:18:58.992Z,32.77
2023-02-11T22:21:26.927Z,28.38
2023-02-11T22:23:55.401Z,26.48
2023-02-11T22:26:41.364Z,28.15
2023-02-11T22:29:09.328Z,25.02
2023-02-11T22:31:37.418Z,27.80
2023-02-11T22:34:06.156Z,24.12
2023-02-11T22:36:39.754Z,24.08
2023-02-11T22:39:11.423Z,25.12
2023-02-11T22:41:41.054Z,27.33
2023-02-11T22:44:09.472Z,32.57
2023-02-11T22:46:37.356Z,29.33
2023-02-11T22:49:05.484Z,28.23
2023-02-11T22:51:33.752Z,30.23
2023-02-11T22:54:03.679Z,33.08
2023-02-11T22:56:32.273Z,30.17
2023-02-11T22:59:02.631Z,26.58
2023-02-11T23:01:30.955Z,26.05
2023-02-11T23:04:03.673Z,28.20
2023-02-11T23:06:31.766Z,29.08
2023-02-11T23:08:59.448Z,28.87
2023-02-11T23:11:29.248Z,26.98
2023-02-11T23:13:57.234Z,26.83
2023-02-11T23:16:27.500Z,32.40
2023-02-11T23:18:55.612Z,29.40
2023-02-11T23:21:25.381Z,31.30
2023-02-11T23:24:00.857Z,32.35
2023-02-11T23:26:29.235Z,30.52
2023-02-11T23:28:58.306Z,28.20
2023-02-11T23:31:28.885Z,24.63
2023-02-11T23:33:57.608Z,28.47
2023-02-11T23:36:25.238Z,27.98
2023-02-11T23:38:52.906Z,23.75
2023-02-11T23:41:21.269Z,28.87
2023-02-11T23:43:50.829Z,26.98
2023-02-11T23:46:19.195Z,28.30
2023-02-11T23:48:47.028Z,29.12
2023-02-11T23:51:14.608Z,28.70
2023-02-11T23:53:42.149Z,28.48
2023-02-11T23:56:14.307Z,26.87
2023-02-11T23:58:42.079Z,26.00
